Terminal Aerodrome Forecast
Issued by NWS Duluth, MN

Home | Current Version | Previous Version | Text Only | Print | Product List | Glossary On
Versions: 1 2 3 4 5 6 7 8 9 10 11 12 13 14 15 16 17 18 19 20 21
000
FTUS43 KDLH 211700
TAFINL
TAF
KINL 211740Z 2118/2218 30014KT P6SM OVC016
      TEMPO 2118/2120 SCT016 BKN030
     FM212000 32016G22KT P6SM SCT025 BKN035
     FM220200 33008KT P6SM SKC=

USA.gov is the U.S. government's official web portal to all federal, state and local government web resources and services.